Terminal Aerodrome Forecast
Issued by NWS

Home | Current Version | Previous Version | Text Only | Print | Product List | Glossary On
Versions: 1 2 3 4 5 6 7 8 9 10 11 12 13 14 15 16 17 18 19 20 21 22 23
000
FTUS44 KLUB 200500
TAFCDS
TAF
KCDS 200520Z 2006/2106 16005KT P6SM OVC012
     FM200900 16004KT 5SM BR OVC005
     FM201800 17009KT P6SM BKN015 BKN250=

USA.gov is the U.S. government's official web portal to all federal, state and local government web resources and services.